sensor_id;sensor_type;location;lat;lon;timestamp;P1;durP1;ratioP1;P2;durP2;ratioP2
261;SDS011;114;48.260;10.988;2023-07-28T00:02:10;8.50;;;3.73;;
261;SDS011;114;48.260;10.988;2023-07-28T00:04:36;4.77;;;3.80;;
261;SDS011;114;48.260;10.988;2023-07-28T00:07:02;4.00;;;3.70;;
261;SDS011;114;48.260;10.988;2023-07-28T00:09:29;3.67;;;3.37;;
261;SDS011;114;48.260;10.988;2023-07-28T00:11:59;3.83;;;3.63;;
261;SDS011;114;48.260;10.988;2023-07-28T00:14:26;7.73;;;4.40;;
261;SDS011;114;48.260;10.988;2023-07-28T00:16:56;4.17;;;3.87;;
261;SDS011;114;48.260;10.988;2023-07-28T00:19:22;4.07;;;3.57;;
261;SDS011;114;48.260;10.988;2023-07-28T00:21:48;5.00;;;3.70;;
261;SDS011;114;48.260;10.988;2023-07-28T00:24:15;5.93;;;4.20;;
261;SDS011;114;48.260;10.988;2023-07-28T00:26:41;6.63;;;3.77;;
261;SDS011;114;48.260;10.988;2023-07-28T00:29:07;3.60;;;3.40;;
261;SDS011;114;48.260;10.988;2023-07-28T00:31:33;3.90;;;3.60;;
261;SDS011;114;48.260;10.988;2023-07-28T00:33:59;8.83;;;4.13;;
261;SDS011;114;48.260;10.988;2023-07-28T00:36:26;4.30;;;3.90;;
261;SDS011;114;48.260;10.988;2023-07-28T00:38:52;4.10;;;3.80;;
261;SDS011;114;48.260;10.988;2023-07-28T00:41:18;4.30;;;3.73;;
261;SDS011;114;48.260;10.988;2023-07-28T00:43:44;13.73;;;4.03;;
261;SDS011;114;48.260;10.988;2023-07-28T00:46:09;5.83;;;4.47;;
261;SDS011;114;48.260;10.988;2023-07-28T00:48:35;4.70;;;4.20;;
261;SDS011;114;48.260;10.988;2023-07-28T00:51:01;4.97;;;4.43;;
261;SDS011;114;48.260;10.988;2023-07-28T00:53:28;4.90;;;4.50;;
261;SDS011;114;48.260;10.988;2023-07-28T00:55:55;10.80;;;3.80;;
261;SDS011;114;48.260;10.988;2023-07-28T00:58:21;5.30;;;4.83;;
261;SDS011;114;48.260;10.988;2023-07-28T01:00:47;5.00;;;3.90;;
261;SDS011;114;48.260;10.988;2023-07-28T01:03:13;6.27;;;3.80;;
261;SDS011;114;48.260;10.988;2023-07-28T01:10:49;4.17;;;3.70;;
261;SDS011;114;48.260;10.988;2023-07-28T01:13:15;6.63;;;4.20;;
261;SDS011;114;48.260;10.988;2023-07-28T01:15:41;11.70;;;4.97;;
261;SDS011;114;48.260;10.988;2023-07-28T01:18:07;5.33;;;4.27;;
261;SDS011;114;48.260;10.988;2023-07-28T01:20:33;14.83;;;4.90;;
261;SDS011;114;48.260;10.988;2023-07-28T01:28:33;4.70;;;4.17;;
261;SDS011;114;48.260;10.988;2023-07-28T01:31:03;4.50;;;4.20;;
261;SDS011;114;48.260;10.988;2023-07-28T01:33:31;30.07;;;4.90;;
261;SDS011;114;48.260;10.988;2023-07-28T01:35:57;8.00;;;4.27;;
261;SDS011;114;48.260;10.988;2023-07-28T01:38:25;5.13;;;4.60;;
261;SDS011;114;48.260;10.988;2023-07-28T01:40:51;6.77;;;4.37;;
261;SDS011;114;48.260;10.988;2023-07-28T01:43:16;4.67;;;4.30;;
261;SDS011;114;48.260;10.988;2023-07-28T01:45:42;4.63;;;3.87;;
261;SDS011;114;48.260;10.988;2023-07-28T01:48:08;8.00;;;3.70;;
261;SDS011;114;48.260;10.988;2023-07-28T01:50:37;14.73;;;3.70;;
261;SDS011;114;48.260;10.988;2023-07-28T01:53:06;3.43;;;3.23;;
261;SDS011;114;48.260;10.988;2023-07-28T01:55:32;15.07;;;4.00;;
261;SDS011;114;48.260;10.988;2023-07-28T01:57:59;5.57;;;4.00;;
261;SDS011;114;48.260;10.988;2023-07-28T02:00:26;5.07;;;3.57;;
261;SDS011;114;48.260;10.988;2023-07-28T02:02:53;6.17;;;4.00;;
261;SDS011;114;48.260;10.988;2023-07-28T02:05:19;4.60;;;4.20;;
261;SDS011;114;48.260;10.988;2023-07-28T02:07:45;4.10;;;3.43;;
261;SDS011;114;48.260;10.988;2023-07-28T02:10:11;7.47;;;4.17;;
261;SDS011;114;48.260;10.988;2023-07-28T02:12:37;6.37;;;3.90;;
261;SDS011;114;48.260;10.988;2023-07-28T02:15:07;4.20;;;3.50;;
261;SDS011;114;48.260;10.988;2023-07-28T02:17:33;4.17;;;3.77;;
261;SDS011;114;48.260;10.988;2023-07-28T02:19:59;5.40;;;4.17;;
261;SDS011;114;48.260;10.988;2023-07-28T02:22:26;7.90;;;4.00;;
261;SDS011;114;48.260;10.988;2023-07-28T02:24:52;35.67;;;3.63;;
261;SDS011;114;48.260;10.988;2023-07-28T02:27:17;4.13;;;3.67;;
261;SDS011;114;48.260;10.988;2023-07-28T02:29:43;11.93;;;4.13;;
261;SDS011;114;48.260;10.988;2023-07-28T02:32:10;3.80;;;3.50;;
261;SDS011;114;48.260;10.988;2023-07-28T02:34:35;3.73;;;3.33;;
261;SDS011;114;48.260;10.988;2023-07-28T02:37:01;4.30;;;4.00;;
261;SDS011;114;48.260;10.988;2023-07-28T02:39:27;5.13;;;3.90;;
261;SDS011;114;48.260;10.988;2023-07-28T02:41:53;5.10;;;4.20;;
261;SDS011;114;48.260;10.988;2023-07-28T02:44:19;3.83;;;3.63;;
261;SDS011;114;48.260;10.988;2023-07-28T02:46:45;5.63;;;4.40;;
261;SDS011;114;48.260;10.988;2023-07-28T02:49:11;6.47;;;4.37;;
261;SDS011;114;48.260;10.988;2023-07-28T02:51:36;6.40;;;3.80;;
261;SDS011;114;48.260;10.988;2023-07-28T02:54:02;7.13;;;3.53;;
261;SDS011;114;48.260;10.988;2023-07-28T02:56:28;4.00;;;3.53;;
261;SDS011;114;48.260;10.988;2023-07-28T02:58:54;5.37;;;3.60;;
261;SDS011;114;48.260;10.988;2023-07-28T03:01:20;7.47;;;3.57;;
261;SDS011;114;48.260;10.988;2023-07-28T03:03:46;3.27;;;3.00;;
261;SDS011;114;48.260;10.988;2023-07-28T03:06:12;3.77;;;3.50;;
261;SDS011;114;48.260;10.988;2023-07-28T03:08:38;4.27;;;3.97;;
261;SDS011;114;48.260;10.988;2023-07-28T03:11:04;9.80;;;3.80;;
261;SDS011;114;48.260;10.988;2023-07-28T03:13:29;9.20;;;4.20;;
261;SDS011;114;48.260;10.988;2023-07-28T03:15:55;4.10;;;3.50;;
261;SDS011;114;48.260;10.988;2023-07-28T03:18:21;4.20;;;4.00;;
261;SDS011;114;48.260;10.988;2023-07-28T03:20:47;5.00;;;3.90;;
261;SDS011;114;48.260;10.988;2023-07-28T03:23:13;3.47;;;3.17;;
261;SDS011;114;48.260;10.988;2023-07-28T03:25:39;3.70;;;3.50;;
261;SDS011;114;48.260;10.988;2023-07-28T03:28:05;5.03;;;3.60;;
261;SDS011;114;48.260;10.988;2023-07-28T03:30:31;4.80;;;3.50;;
261;SDS011;114;48.260;10.988;2023-07-28T03:32:57;4.10;;;3.17;;
261;SDS011;114;48.260;10.988;2023-07-28T03:35:22;3.80;;;3.50;;
261;SDS011;114;48.260;10.988;2023-07-28T03:37:48;11.57;;;3.57;;
261;SDS011;114;48.260;10.988;2023-07-28T03:40:14;3.80;;;3.50;;
261;SDS011;114;48.260;10.988;2023-07-28T03:42:40;3.57;;;3.27;;
261;SDS011;114;48.260;10.988;2023-07-28T03:45:06;3.20;;;3.00;;
261;SDS011;114;48.260;10.988;2023-07-28T03:47:32;3.33;;;3.13;;
261;SDS011;114;48.260;10.988;2023-07-28T03:49:58;3.50;;;2.93;;
261;SDS011;114;48.260;10.988;2023-07-28T03:52:24;4.03;;;3.00;;
261;SDS011;114;48.260;10.988;2023-07-28T03:54:50;4.03;;;3.33;;
261;SDS011;114;48.260;10.988;2023-07-28T03:57:15;3.60;;;3.40;;
261;SDS011;114;48.260;10.988;2023-07-28T03:59:41;3.13;;;2.83;;
261;SDS011;114;48.260;10.988;2023-07-28T04:02:07;9.67;;;3.40;;
261;SDS011;114;48.260;10.988;2023-07-28T04:04:33;4.97;;;3.13;;
261;SDS011;114;48.260;10.988;2023-07-28T04:07:00;6.53;;;3.80;;
261;SDS011;114;48.260;10.988;2023-07-28T04:09:26;3.87;;;3.50;;
261;SDS011;114;48.260;10.988;2023-07-28T04:11:52;3.93;;;3.60;;
261;SDS011;114;48.260;10.988;2023-07-28T04:14:18;3.43;;;3.23;;
261;SDS011;114;48.260;10.988;2023-07-28T04:16:44;3.80;;;3.40;;
261;SDS011;114;48.260;10.988;2023-07-28T04:19:09;4.97;;;3.40;;
261;SDS011;114;48.260;10.988;2023-07-28T04:21:35;4.13;;;3.27;;
261;SDS011;114;48.260;10.988;2023-07-28T04:24:05;5.33;;;3.27;;
261;SDS011;114;48.260;10.988;2023-07-28T04:26:32;6.90;;;3.53;;
261;SDS011;114;48.260;10.988;2023-07-28T04:28:58;3.60;;;3.30;;
261;SDS011;114;48.260;10.988;2023-07-28T04:31:24;3.20;;;3.00;;
261;SDS011;114;48.260;10.988;2023-07-28T04:33:50;3.30;;;3.10;;
261;SDS011;114;48.260;10.988;2023-07-28T04:36:16;5.93;;;3.47;;
261;SDS011;114;48.260;10.988;2023-07-28T04:38:41;2.83;;;2.70;;
261;SDS011;114;48.260;10.988;2023-07-28T04:41:07;3.00;;;2.80;;
261;SDS011;114;48.260;10.988;2023-07-28T04:43:33;2.53;;;2.37;;
261;SDS011;114;48.260;10.988;2023-07-28T04:45:58;2.73;;;2.60;;
261;SDS011;114;48.260;10.988;2023-07-28T04:48:24;3.60;;;3.20;;
261;SDS011;114;48.260;10.988;2023-07-28T04:50:52;4.70;;;3.30;;
261;SDS011;114;48.260;10.988;2023-07-28T04:53:17;5.40;;;3.07;;
261;SDS011;114;48.260;10.988;2023-07-28T04:55:45;3.03;;;2.83;;
261;SDS011;114;48.260;10.988;2023-07-28T04:58:10;4.40;;;2.93;;
261;SDS011;114;48.260;10.988;2023-07-28T05:00:36;2.57;;;2.37;;
261;SDS011;114;48.260;10.988;2023-07-28T05:03:02;4.00;;;2.90;;
261;SDS011;114;48.260;10.988;2023-07-28T05:05:31;3.00;;;2.80;;
261;SDS011;114;48.260;10.988;2023-07-28T05:07:57;3.77;;;3.47;;
261;SDS011;114;48.260;10.988;2023-07-28T05:10:22;3.40;;;3.20;;
261;SDS011;114;48.260;10.988;2023-07-28T05:12:48;3.10;;;2.90;;
261;SDS011;114;48.260;10.988;2023-07-28T05:15:14;9.13;;;3.27;;
261;SDS011;114;48.260;10.988;2023-07-28T05:17:40;7.50;;;3.90;;
261;SDS011;114;48.260;10.988;2023-07-28T05:20:06;3.93;;;3.20;;
261;SDS011;114;48.260;10.988;2023-07-28T05:22:32;4.70;;;3.40;;
261;SDS011;114;48.260;10.988;2023-07-28T05:24:58;3.70;;;2.60;;
261;SDS011;114;48.260;10.988;2023-07-28T05:27:24;5.97;;;3.47;;
261;SDS011;114;48.260;10.988;2023-07-28T05:29:50;5.37;;;3.50;;
261;SDS011;114;48.260;10.988;2023-07-28T05:32:15;3.40;;;3.10;;
261;SDS011;114;48.260;10.988;2023-07-28T05:34:42;4.97;;;3.00;;
261;SDS011;114;48.260;10.988;2023-07-28T05:37:08;10.10;;;3.23;;
261;SDS011;114;48.260;10.988;2023-07-28T05:39:34;4.13;;;3.40;;
261;SDS011;114;48.260;10.988;2023-07-28T05:42:00;2.60;;;2.40;;
261;SDS011;114;48.260;10.988;2023-07-28T05:44:25;4.60;;;3.97;;
261;SDS011;114;48.260;10.988;2023-07-28T05:46:51;3.63;;;3.30;;
261;SDS011;114;48.260;10.988;2023-07-28T05:49:17;7.77;;;3.30;;
261;SDS011;114;48.260;10.988;2023-07-28T05:51:42;3.77;;;3.20;;
261;SDS011;114;48.260;10.988;2023-07-28T05:54:08;7.13;;;2.50;;
261;SDS011;114;48.260;10.988;2023-07-28T05:56:34;3.20;;;2.87;;
261;SDS011;114;48.260;10.988;2023-07-28T05:59:00;5.30;;;2.40;;
261;SDS011;114;48.260;10.988;2023-07-28T06:01:25;10.03;;;4.67;;
261;SDS011;114;48.260;10.988;2023-07-28T06:03:52;6.13;;;2.33;;
261;SDS011;114;48.260;10.988;2023-07-28T06:06:20;17.43;;;4.00;;
261;SDS011;114;48.260;10.988;2023-07-28T06:08:47;3.33;;;2.63;;
261;SDS011;114;48.260;10.988;2023-07-28T06:11:12;2.70;;;2.43;;
261;SDS011;114;48.260;10.988;2023-07-28T06:13:38;5.03;;;2.70;;
261;SDS011;114;48.260;10.988;2023-07-28T06:16:04;5.10;;;3.20;;
261;SDS011;114;48.260;10.988;2023-07-28T06:18:30;10.20;;;2.77;;
261;SDS011;114;48.260;10.988;2023-07-28T06:20:55;7.50;;;2.70;;
261;SDS011;114;48.260;10.988;2023-07-28T06:23:21;9.10;;;2.70;;
261;SDS011;114;48.260;10.988;2023-07-28T06:25:47;12.83;;;2.73;;
261;SDS011;114;48.260;10.988;2023-07-28T06:28:13;7.60;;;2.67;;
261;SDS011;114;48.260;10.988;2023-07-28T06:30:38;2.70;;;2.50;;
261;SDS011;114;48.260;10.988;2023-07-28T06:33:08;2.20;;;2.10;;
261;SDS011;114;48.260;10.988;2023-07-28T06:35:34;2.60;;;2.40;;
261;SDS011;114;48.260;10.988;2023-07-28T06:38:00;5.53;;;2.10;;
261;SDS011;114;48.260;10.988;2023-07-28T06:40:27;2.40;;;2.17;;
261;SDS011;114;48.260;10.988;2023-07-28T06:42:53;2.60;;;2.40;;
261;SDS011;114;48.260;10.988;2023-07-28T06:45:19;7.23;;;2.33;;
261;SDS011;114;48.260;10.988;2023-07-28T06:47:45;4.10;;;1.83;;
261;SDS011;114;48.260;10.988;2023-07-28T06:50:11;4.13;;;2.07;;
261;SDS011;114;48.260;10.988;2023-07-28T06:52:37;5.43;;;2.47;;
261;SDS011;114;48.260;10.988;2023-07-28T06:55:03;3.33;;;2.27;;
261;SDS011;114;48.260;10.988;2023-07-28T06:57:29;3.17;;;2.40;;
261;SDS011;114;48.260;10.988;2023-07-28T07:00:00;14.83;;;2.97;;
261;SDS011;114;48.260;10.988;2023-07-28T07:02:26;5.23;;;2.80;;
261;SDS011;114;48.260;10.988;2023-07-28T07:04:52;6.03;;;2.30;;
261;SDS011;114;48.260;10.988;2023-07-28T07:07:18;10.67;;;2.93;;
261;SDS011;114;48.260;10.988;2023-07-28T07:09:44;2.50;;;1.87;;
261;SDS011;114;48.260;10.988;2023-07-28T07:12:10;3.57;;;2.70;;
261;SDS011;114;48.260;10.988;2023-07-28T07:14:37;2.70;;;2.40;;
261;SDS011;114;48.260;10.988;2023-07-28T07:17:02;4.93;;;2.93;;
261;SDS011;114;48.260;10.988;2023-07-28T07:19:28;3.03;;;2.73;;
261;SDS011;114;48.260;10.988;2023-07-28T07:21:54;3.30;;;2.50;;
261;SDS011;114;48.260;10.988;2023-07-28T07:24:20;2.57;;;2.37;;
261;SDS011;114;48.260;10.988;2023-07-28T07:26:46;2.33;;;2.23;;
261;SDS011;114;48.260;10.988;2023-07-28T07:29:12;4.10;;;1.93;;
261;SDS011;114;48.260;10.988;2023-07-28T07:31:38;5.47;;;1.80;;
261;SDS011;114;48.260;10.988;2023-07-28T07:34:04;2.53;;;1.90;;
261;SDS011;114;48.260;10.988;2023-07-28T07:36:31;2.03;;;1.93;;
261;SDS011;114;48.260;10.988;2023-07-28T07:38:56;2.40;;;2.30;;
261;SDS011;114;48.260;10.988;2023-07-28T07:41:23;3.10;;;2.20;;
261;SDS011;114;48.260;10.988;2023-07-28T07:43:50;1.80;;;1.67;;
261;SDS011;114;48.260;10.988;2023-07-28T07:46:17;9.87;;;2.40;;
261;SDS011;114;48.260;10.988;2023-07-28T07:48:47;2.17;;;2.07;;
261;SDS011;114;48.260;10.988;2023-07-28T07:51:13;2.00;;;1.90;;
261;SDS011;114;48.260;10.988;2023-07-28T07:53:39;7.13;;;2.73;;
261;SDS011;114;48.260;10.988;2023-07-28T07:56:06;13.10;;;1.93;;
261;SDS011;114;48.260;10.988;2023-07-28T07:58:33;2.07;;;1.97;;
261;SDS011;114;48.260;10.988;2023-07-28T08:00:59;6.03;;;1.80;;
261;SDS011;114;48.260;10.988;2023-07-28T08:03:25;3.80;;;1.87;;
261;SDS011;114;48.260;10.988;2023-07-28T08:05:52;4.30;;;1.80;;
261;SDS011;114;48.260;10.988;2023-07-28T08:08:18;2.27;;;2.10;;
261;SDS011;114;48.260;10.988;2023-07-28T08:10:51;7.30;;;1.60;;
261;SDS011;114;48.260;10.988;2023-07-28T08:13:17;2.30;;;2.00;;
261;SDS011;114;48.260;10.988;2023-07-28T08:15:44;1.97;;;1.70;;
261;SDS011;114;48.260;10.988;2023-07-28T08:18:11;2.20;;;2.10;;
261;SDS011;114;48.260;10.988;2023-07-28T08:20:38;2.27;;;2.10;;
261;SDS011;114;48.260;10.988;2023-07-28T08:23:04;6.50;;;2.50;;
261;SDS011;114;48.260;10.988;2023-07-28T08:25:30;2.40;;;1.70;;
261;SDS011;114;48.260;10.988;2023-07-28T08:27:56;3.53;;;1.97;;
261;SDS011;114;48.260;10.988;2023-07-28T08:30:21;5.53;;;2.03;;
261;SDS011;114;48.260;10.988;2023-07-28T08:32:47;3.03;;;1.83;;
261;SDS011;114;48.260;10.988;2023-07-28T08:35:14;3.83;;;1.50;;
261;SDS011;114;48.260;10.988;2023-07-28T08:37:40;29.47;;;3.83;;
261;SDS011;114;48.260;10.988;2023-07-28T08:40:06;6.37;;;2.87;;
261;SDS011;114;48.260;10.988;2023-07-28T08:42:36;5.10;;;2.33;;
261;SDS011;114;48.260;10.988;2023-07-28T08:45:03;2.67;;;2.20;;
261;SDS011;114;48.260;10.988;2023-07-28T08:47:36;2.67;;;2.13;;
261;SDS011;114;48.260;10.988;2023-07-28T08:50:03;6.13;;;2.30;;
261;SDS011;114;48.260;10.988;2023-07-28T08:52:31;2.07;;;1.87;;
261;SDS011;114;48.260;10.988;2023-07-28T08:54:58;1.90;;;1.80;;
261;SDS011;114;48.260;10.988;2023-07-28T08:57:23;4.70;;;2.07;;
261;SDS011;114;48.260;10.988;2023-07-28T08:59:49;1.50;;;1.40;;
261;SDS011;114;48.260;10.988;2023-07-28T09:02:17;2.07;;;1.97;;
261;SDS011;114;48.260;10.988;2023-07-28T09:04:44;2.70;;;1.90;;
261;SDS011;114;48.260;10.988;2023-07-28T09:07:11;2.27;;;2.17;;
261;SDS011;114;48.260;10.988;2023-07-28T09:09:38;1.77;;;1.67;;
261;SDS011;114;48.260;10.988;2023-07-28T09:12:06;2.73;;;1.50;;
261;SDS011;114;48.260;10.988;2023-07-28T09:14:35;2.37;;;1.70;;
261;SDS011;114;48.260;10.988;2023-07-28T09:17:12;3.90;;;1.87;;
261;SDS011;114;48.260;10.988;2023-07-28T09:19:51;3.37;;;1.90;;
261;SDS011;114;48.260;10.988;2023-07-28T09:22:18;1.80;;;1.63;;
261;SDS011;114;48.260;10.988;2023-07-28T09:24:45;1.83;;;1.73;;
261;SDS011;114;48.260;10.988;2023-07-28T09:27:21;2.30;;;1.53;;
261;SDS011;114;48.260;10.988;2023-07-28T09:29:53;5.47;;;2.07;;
261;SDS011;114;48.260;10.988;2023-07-28T09:32:32;1.80;;;1.70;;
261;SDS011;114;48.260;10.988;2023-07-28T09:35:05;1.90;;;1.80;;
261;SDS011;114;48.260;10.988;2023-07-28T09:37:35;5.23;;;1.60;;
261;SDS011;114;48.260;10.988;2023-07-28T09:40:04;1.90;;;1.80;;
261;SDS011;114;48.260;10.988;2023-07-28T09:42:44;2.40;;;2.00;;
261;SDS011;114;48.260;10.988;2023-07-28T09:45:14;2.30;;;1.90;;
261;SDS011;114;48.260;10.988;2023-07-28T09:47:41;2.67;;;1.67;;
261;SDS011;114;48.260;10.988;2023-07-28T09:50:10;1.87;;;1.77;;
261;SDS011;114;48.260;10.988;2023-07-28T09:52:39;3.13;;;1.63;;
261;SDS011;114;48.260;10.988;2023-07-28T09:55:09;2.33;;;1.93;;
261;SDS011;114;48.260;10.988;2023-07-28T09:57:41;2.10;;;2.00;;
261;SDS011;114;48.260;10.988;2023-07-28T10:00:19;1.90;;;1.80;;
261;SDS011;114;48.260;10.988;2023-07-28T10:02:47;1.83;;;1.80;;
261;SDS011;114;48.260;10.988;2023-07-28T10:05:14;2.27;;;2.10;;
261;SDS011;114;48.260;10.988;2023-07-28T10:07:41;2.27;;;2.07;;
261;SDS011;114;48.260;10.988;2023-07-28T10:10:11;4.23;;;1.77;;
261;SDS011;114;48.260;10.988;2023-07-28T10:15:19;3.50;;;2.20;;
261;SDS011;114;48.260;10.988;2023-07-28T10:17:53;1.90;;;1.80;;
261;SDS011;114;48.260;10.988;2023-07-28T10:20:35;3.10;;;1.80;;
261;SDS011;114;48.260;10.988;2023-07-28T10:23:07;1.93;;;1.83;;
261;SDS011;114;48.260;10.988;2023-07-28T10:25:37;3.83;;;2.00;;
261;SDS011;114;48.260;10.988;2023-07-28T10:28:04;7.80;;;2.07;;
261;SDS011;114;48.260;10.988;2023-07-28T10:30:34;14.30;;;2.50;;
261;SDS011;114;48.260;10.988;2023-07-28T10:33:02;2.37;;;2.13;;
261;SDS011;114;48.260;10.988;2023-07-28T10:35:28;1.93;;;1.83;;
261;SDS011;114;48.260;10.988;2023-07-28T10:37:56;3.13;;;2.07;;
261;SDS011;114;48.260;10.988;2023-07-28T10:40:32;5.17;;;2.00;;
261;SDS011;114;48.260;10.988;2023-07-28T10:43:00;3.67;;;1.80;;
261;SDS011;114;48.260;10.988;2023-07-28T10:45:27;2.10;;;1.83;;
261;SDS011;114;48.260;10.988;2023-07-28T10:47:55;5.03;;;2.40;;
261;SDS011;114;48.260;10.988;2023-07-28T10:50:26;2.00;;;1.90;;
261;SDS011;114;48.260;10.988;2023-07-28T10:52:53;4.03;;;2.57;;
261;SDS011;114;48.260;10.988;2023-07-28T10:55:20;2.63;;;2.27;;
261;SDS011;114;48.260;10.988;2023-07-28T10:57:48;3.70;;;2.60;;
261;SDS011;114;48.260;10.988;2023-07-28T11:00:16;5.80;;;2.50;;
261;SDS011;114;48.260;10.988;2023-07-28T11:02:44;1.83;;;1.73;;
261;SDS011;114;48.260;10.988;2023-07-28T11:05:10;2.13;;;2.03;;
261;SDS011;114;48.260;10.988;2023-07-28T11:07:43;1.77;;;1.67;;
261;SDS011;114;48.260;10.988;2023-07-28T11:10:12;2.43;;;2.33;;
261;SDS011;114;48.260;10.988;2023-07-28T11:12:43;3.93;;;2.03;;
261;SDS011;114;48.260;10.988;2023-07-28T11:15:12;2.40;;;2.20;;
261;SDS011;114;48.260;10.988;2023-07-28T11:17:39;2.20;;;2.10;;
261;SDS011;114;48.260;10.988;2023-07-28T11:20:19;2.37;;;2.17;;
261;SDS011;114;48.260;10.988;2023-07-28T11:22:45;2.00;;;1.90;;
261;SDS011;114;48.260;10.988;2023-07-28T11:25:33;3.03;;;2.20;;
261;SDS011;114;48.260;10.988;2023-07-28T11:28:01;2.10;;;2.00;;
261;SDS011;114;48.260;10.988;2023-07-28T11:30:31;2.30;;;2.10;;
261;SDS011;114;48.260;10.988;2023-07-28T11:33:00;2.50;;;2.30;;
261;SDS011;114;48.260;10.988;2023-07-28T11:35:28;3.37;;;2.13;;
261;SDS011;114;48.260;10.988;2023-07-28T11:37:54;3.90;;;2.23;;
261;SDS011;114;48.260;10.988;2023-07-28T11:40:21;1.70;;;1.60;;
261;SDS011;114;48.260;10.988;2023-07-28T11:42:48;3.47;;;2.03;;
261;SDS011;114;48.260;10.988;2023-07-28T11:45:17;3.50;;;2.30;;
261;SDS011;114;48.260;10.988;2023-07-28T11:47:57;3.77;;;2.40;;
261;SDS011;114;48.260;10.988;2023-07-28T11:50:26;2.60;;;2.40;;
261;SDS011;114;48.260;10.988;2023-07-28T11:52:53;2.40;;;2.20;;
261;SDS011;114;48.260;10.988;2023-07-28T11:55:21;2.53;;;2.30;;
261;SDS011;114;48.260;10.988;2023-07-28T11:57:47;1.87;;;1.70;;
261;SDS011;114;48.260;10.988;2023-07-28T12:00:14;2.13;;;2.03;;
261;SDS011;114;48.260;10.988;2023-07-28T12:02:43;5.00;;;2.13;;
261;SDS011;114;48.260;10.988;2023-07-28T12:05:13;8.10;;;2.10;;
261;SDS011;114;48.260;10.988;2023-07-28T12:07:41;2.10;;;2.00;;
261;SDS011;114;48.260;10.988;2023-07-28T12:10:13;2.00;;;1.77;;
261;SDS011;114;48.260;10.988;2023-07-28T12:12:40;6.50;;;1.90;;
261;SDS011;114;48.260;10.988;2023-07-28T12:15:24;1.83;;;1.70;;
261;SDS011;114;48.260;10.988;2023-07-28T12:18:06;2.23;;;2.13;;
261;SDS011;114;48.260;10.988;2023-07-28T12:20:43;2.93;;;1.77;;
261;SDS011;114;48.260;10.988;2023-07-28T12:23:15;2.47;;;2.27;;
261;SDS011;114;48.260;10.988;2023-07-28T12:25:44;2.17;;;2.07;;
261;SDS011;114;48.260;10.988;2023-07-28T12:28:10;3.63;;;2.20;;
261;SDS011;114;48.260;10.988;2023-07-28T12:30:37;2.53;;;2.33;;
261;SDS011;114;48.260;10.988;2023-07-28T12:33:03;2.93;;;2.70;;
261;SDS011;114;48.260;10.988;2023-07-28T12:35:30;5.70;;;2.00;;
261;SDS011;114;48.260;10.988;2023-07-28T12:37:59;3.63;;;2.33;;
261;SDS011;114;48.260;10.988;2023-07-28T12:40:26;2.53;;;2.33;;
261;SDS011;114;48.260;10.988;2023-07-28T12:42:54;2.53;;;2.33;;
261;SDS011;114;48.260;10.988;2023-07-28T12:45:21;13.10;;;2.47;;
261;SDS011;114;48.260;10.988;2023-07-28T12:47:47;6.60;;;3.00;;
261;SDS011;114;48.260;10.988;2023-07-28T12:50:13;5.77;;;1.73;;
261;SDS011;114;48.260;10.988;2023-07-28T12:52:39;8.83;;;2.40;;
261;SDS011;114;48.260;10.988;2023-07-28T12:55:05;1.97;;;1.87;;
261;SDS011;114;48.260;10.988;2023-07-28T12:57:31;5.23;;;1.93;;
261;SDS011;114;48.260;10.988;2023-07-28T12:59:58;2.03;;;1.87;;
261;SDS011;114;48.260;10.988;2023-07-28T13:02:23;2.40;;;2.30;;
261;SDS011;114;48.260;10.988;2023-07-28T13:04:49;3.73;;;1.73;;
261;SDS011;114;48.260;10.988;2023-07-28T13:07:15;5.40;;;2.43;;
261;SDS011;114;48.260;10.988;2023-07-28T13:09:41;3.90;;;2.30;;
261;SDS011;114;48.260;10.988;2023-07-28T13:12:07;2.60;;;2.50;;
261;SDS011;114;48.260;10.988;2023-07-28T13:14:33;3.50;;;2.07;;
261;SDS011;114;48.260;10.988;2023-07-28T13:16:59;2.70;;;1.93;;
261;SDS011;114;48.260;10.988;2023-07-28T13:19:25;2.30;;;2.17;;
261;SDS011;114;48.260;10.988;2023-07-28T13:21:50;5.23;;;2.20;;
261;SDS011;114;48.260;10.988;2023-07-28T13:24:16;4.30;;;2.27;;
261;SDS011;114;48.260;10.988;2023-07-28T13:26:42;8.73;;;2.57;;
261;SDS011;114;48.260;10.988;2023-07-28T13:29:08;2.40;;;2.20;;
261;SDS011;114;48.260;10.988;2023-07-28T13:31:33;2.70;;;2.60;;
261;SDS011;114;48.260;10.988;2023-07-28T13:33:59;3.47;;;2.13;;
261;SDS011;114;48.260;10.988;2023-07-28T13:36:25;2.33;;;2.13;;
261;SDS011;114;48.260;10.988;2023-07-28T13:38:51;2.60;;;2.50;;
261;SDS011;114;48.260;10.988;2023-07-28T13:41:16;2.43;;;2.23;;
261;SDS011;114;48.260;10.988;2023-07-28T13:43:42;2.77;;;2.57;;
261;SDS011;114;48.260;10.988;2023-07-28T13:46:08;5.77;;;2.83;;
261;SDS011;114;48.260;10.988;2023-07-28T13:48:34;5.47;;;2.37;;
261;SDS011;114;48.260;10.988;2023-07-28T13:51:04;6.57;;;1.80;;
261;SDS011;114;48.260;10.988;2023-07-28T13:53:30;2.20;;;2.10;;
261;SDS011;114;48.260;10.988;2023-07-28T13:55:56;3.23;;;2.10;;
261;SDS011;114;48.260;10.988;2023-07-28T13:58:22;3.80;;;2.33;;
261;SDS011;114;48.260;10.988;2023-07-28T14:00:48;2.80;;;2.60;;
261;SDS011;114;48.260;10.988;2023-07-28T14:03:14;2.80;;;2.57;;
261;SDS011;114;48.260;10.988;2023-07-28T14:05:41;6.87;;;2.23;;
261;SDS011;114;48.260;10.988;2023-07-28T14:08:07;2.47;;;2.30;;
261;SDS011;114;48.260;10.988;2023-07-28T14:10:33;4.20;;;2.70;;
261;SDS011;114;48.260;10.988;2023-07-28T14:12:59;2.47;;;2.27;;
261;SDS011;114;48.260;10.988;2023-07-28T14:15:25;6.07;;;2.33;;
261;SDS011;114;48.260;10.988;2023-07-28T14:17:51;6.00;;;2.70;;
261;SDS011;114;48.260;10.988;2023-07-28T14:20:17;3.00;;;2.70;;
261;SDS011;114;48.260;10.988;2023-07-28T14:22:42;2.90;;;1.90;;
261;SDS011;114;48.260;10.988;2023-07-28T14:25:08;2.50;;;2.30;;
261;SDS011;114;48.260;10.988;2023-07-28T14:27:34;3.50;;;2.33;;
261;SDS011;114;48.260;10.988;2023-07-28T14:30:00;2.53;;;2.33;;
261;SDS011;114;48.260;10.988;2023-07-28T14:32:25;9.00;;;2.90;;
261;SDS011;114;48.260;10.988;2023-07-28T14:34:51;5.90;;;2.40;;
261;SDS011;114;48.260;10.988;2023-07-28T14:37:17;2.00;;;1.90;;
261;SDS011;114;48.260;10.988;2023-07-28T14:39:43;2.60;;;2.50;;
261;SDS011;114;48.260;10.988;2023-07-28T14:42:09;3.83;;;2.37;;
261;SDS011;114;48.260;10.988;2023-07-28T14:44:35;2.87;;;2.40;;
261;SDS011;114;48.260;10.988;2023-07-28T14:47:01;2.50;;;2.00;;
261;SDS011;114;48.260;10.988;2023-07-28T14:49:27;2.87;;;2.67;;
261;SDS011;114;48.260;10.988;2023-07-28T14:51:55;2.43;;;2.20;;
261;SDS011;114;48.260;10.988;2023-07-28T14:54:21;4.60;;;2.23;;
261;SDS011;114;48.260;10.988;2023-07-28T14:56:47;2.70;;;2.60;;
261;SDS011;114;48.260;10.988;2023-07-28T14:59:13;2.33;;;2.23;;
261;SDS011;114;48.260;10.988;2023-07-28T15:01:40;2.37;;;2.27;;
261;SDS011;114;48.260;10.988;2023-07-28T15:04:07;5.47;;;1.83;;
261;SDS011;114;48.260;10.988;2023-07-28T15:06:33;3.13;;;1.87;;
261;SDS011;114;48.260;10.988;2023-07-28T15:08:59;2.80;;;2.60;;
261;SDS011;114;48.260;10.988;2023-07-28T15:11:24;2.43;;;2.33;;
261;SDS011;114;48.260;10.988;2023-07-28T15:13:50;8.80;;;2.53;;
261;SDS011;114;48.260;10.988;2023-07-28T15:16:16;2.27;;;2.17;;
261;SDS011;114;48.260;10.988;2023-07-28T15:18:42;2.37;;;2.17;;
261;SDS011;114;48.260;10.988;2023-07-28T15:21:08;2.30;;;2.10;;
261;SDS011;114;48.260;10.988;2023-07-28T15:23:34;2.30;;;1.87;;
261;SDS011;114;48.260;10.988;2023-07-28T15:26:00;2.83;;;2.63;;
261;SDS011;114;48.260;10.988;2023-07-28T15:28:27;3.63;;;2.37;;
261;SDS011;114;48.260;10.988;2023-07-28T15:30:53;6.00;;;3.60;;
261;SDS011;114;48.260;10.988;2023-07-28T15:33:21;3.30;;;2.40;;
261;SDS011;114;48.260;10.988;2023-07-28T15:35:56;4.30;;;2.40;;
261;SDS011;114;48.260;10.988;2023-07-28T15:38:23;3.30;;;2.97;;
261;SDS011;114;48.260;10.988;2023-07-28T15:40:49;3.47;;;2.73;;
261;SDS011;114;48.260;10.988;2023-07-28T15:43:15;2.63;;;2.50;;